sensor_id;sensor_type;location;lat;lon;timestamp;P1;durP1;ratioP1;P2;durP2;ratioP2
21955;SDS011;11142;49.930;8.606;2024-01-10T00:00:38;19.05;;;8.27;;
21955;SDS011;11142;49.930;8.606;2024-01-10T00:03:06;27.48;;;11.27;;
21955;SDS011;11142;49.930;8.606;2024-01-10T00:05:36;18.77;;;8.90;;
21955;SDS011;11142;49.930;8.606;2024-01-10T00:08:05;15.25;;;7.82;;
21955;SDS011;11142;49.930;8.606;2024-01-10T00:10:33;17.92;;;7.13;;
21955;SDS011;11142;49.930;8.606;2024-01-10T00:13:03;16.88;;;6.88;;
21955;SDS011;11142;49.930;8.606;2024-01-10T00:15:33;13.57;;;5.63;;
21955;SDS011;11142;49.930;8.606;2024-01-10T00:18:04;19.52;;;8.02;;
21955;SDS011;11142;49.930;8.606;2024-01-10T00:20:33;16.20;;;6.95;;
21955;SDS011;11142;49.930;8.606;2024-01-10T00:23:03;21.80;;;8.45;;
21955;SDS011;11142;49.930;8.606;2024-01-10T00:25:33;24.48;;;8.65;;
21955;SDS011;11142;49.930;8.606;2024-01-10T00:28:03;14.40;;;6.43;;
21955;SDS011;11142;49.930;8.606;2024-01-10T00:30:32;10.85;;;6.05;;
21955;SDS011;11142;49.930;8.606;2024-01-10T00:33:00;24.77;;;6.93;;
21955;SDS011;11142;49.930;8.606;2024-01-10T00:35:28;26.70;;;9.00;;
21955;SDS011;11142;49.930;8.606;2024-01-10T00:37:57;20.52;;;8.02;;
21955;SDS011;11142;49.930;8.606;2024-01-10T00:40:28;28.90;;;9.95;;
21955;SDS011;11142;49.930;8.606;2024-01-10T00:43:00;13.55;;;5.43;;
21955;SDS011;11142;49.930;8.606;2024-01-10T00:45:29;19.10;;;7.57;;
21955;SDS011;11142;49.930;8.606;2024-01-10T00:47:57;19.40;;;9.05;;
21955;SDS011;11142;49.930;8.606;2024-01-10T00:50:25;19.88;;;9.30;;
21955;SDS011;11142;49.930;8.606;2024-01-10T00:52:53;14.77;;;7.68;;
21955;SDS011;11142;49.930;8.606;2024-01-10T00:55:22;22.35;;;9.25;;
21955;SDS011;11142;49.930;8.606;2024-01-10T00:57:53;8.85;;;5.57;;
21955;SDS011;11142;49.930;8.606;2024-01-10T01:00:22;25.17;;;9.90;;
21955;SDS011;11142;49.930;8.606;2024-01-10T01:02:50;31.13;;;9.43;;
21955;SDS011;11142;49.930;8.606;2024-01-10T01:05:18;17.83;;;6.70;;
21955;SDS011;11142;49.930;8.606;2024-01-10T01:07:47;21.33;;;8.23;;
21955;SDS011;11142;49.930;8.606;2024-01-10T01:10:17;13.48;;;7.00;;
21955;SDS011;11142;49.930;8.606;2024-01-10T01:12:45;18.05;;;9.13;;
21955;SDS011;11142;49.930;8.606;2024-01-10T01:15:17;21.08;;;9.27;;
21955;SDS011;11142;49.930;8.606;2024-01-10T01:17:46;19.00;;;8.50;;
21955;SDS011;11142;49.930;8.606;2024-01-10T01:20:14;19.85;;;8.10;;
21955;SDS011;11142;49.930;8.606;2024-01-10T01:22:43;25.00;;;9.88;;
21955;SDS011;11142;49.930;8.606;2024-01-10T01:25:11;22.80;;;8.65;;
21955;SDS011;11142;49.930;8.606;2024-01-10T01:27:41;26.13;;;11.13;;
21955;SDS011;11142;49.930;8.606;2024-01-10T01:30:09;29.48;;;12.88;;
21955;SDS011;11142;49.930;8.606;2024-01-10T01:32:41;17.15;;;7.13;;
21955;SDS011;11142;49.930;8.606;2024-01-10T01:35:11;24.77;;;9.85;;
21955;SDS011;11142;49.930;8.606;2024-01-10T01:37:40;26.63;;;10.65;;
21955;SDS011;11142;49.930;8.606;2024-01-10T01:40:08;28.75;;;11.15;;
21955;SDS011;11142;49.930;8.606;2024-01-10T01:42:37;20.80;;;7.32;;
21955;SDS011;11142;49.930;8.606;2024-01-10T01:45:07;25.17;;;12.68;;
21955;SDS011;11142;49.930;8.606;2024-01-10T01:47:35;24.33;;;9.85;;
21955;SDS011;11142;49.930;8.606;2024-01-10T01:50:06;18.92;;;8.40;;
21955;SDS011;11142;49.930;8.606;2024-01-10T01:52:36;40.33;;;12.50;;
21955;SDS011;11142;49.930;8.606;2024-01-10T01:55:05;35.15;;;14.45;;
21955;SDS011;11142;49.930;8.606;2024-01-10T01:57:37;33.08;;;12.50;;
21955;SDS011;11142;49.930;8.606;2024-01-10T02:00:07;19.15;;;8.57;;
21955;SDS011;11142;49.930;8.606;2024-01-10T02:02:38;25.50;;;11.73;;
21955;SDS011;11142;49.930;8.606;2024-01-10T02:05:09;31.92;;;12.48;;
21955;SDS011;11142;49.930;8.606;2024-01-10T02:07:38;25.77;;;11.52;;
21955;SDS011;11142;49.930;8.606;2024-01-10T02:10:07;33.00;;;12.02;;
21955;SDS011;11142;49.930;8.606;2024-01-10T02:12:35;26.38;;;11.80;;
21955;SDS011;11142;49.930;8.606;2024-01-10T02:15:04;24.77;;;11.20;;
21955;SDS011;11142;49.930;8.606;2024-01-10T02:17:33;15.80;;;7.22;;
21955;SDS011;11142;49.930;8.606;2024-01-10T02:20:09;34.80;;;15.40;;
21955;SDS011;11142;49.930;8.606;2024-01-10T02:22:38;30.88;;;12.02;;
21955;SDS011;11142;49.930;8.606;2024-01-10T02:25:09;24.27;;;9.77;;
21955;SDS011;11142;49.930;8.606;2024-01-10T02:27:38;28.50;;;11.23;;
21955;SDS011;11142;49.930;8.606;2024-01-10T02:30:07;20.52;;;9.57;;
21955;SDS011;11142;49.930;8.606;2024-01-10T02:32:38;36.28;;;13.60;;
21955;SDS011;11142;49.930;8.606;2024-01-10T02:35:07;29.48;;;12.02;;
21955;SDS011;11142;49.930;8.606;2024-01-10T02:37:36;15.73;;;7.75;;
21955;SDS011;11142;49.930;8.606;2024-01-10T02:40:04;23.92;;;8.48;;
21955;SDS011;11142;49.930;8.606;2024-01-10T02:42:34;28.08;;;10.75;;
21955;SDS011;11142;49.930;8.606;2024-01-10T02:45:03;25.33;;;10.55;;
21955;SDS011;11142;49.930;8.606;2024-01-10T02:47:32;30.70;;;13.85;;
21955;SDS011;11142;49.930;8.606;2024-01-10T02:50:01;28.45;;;11.75;;
21955;SDS011;11142;49.930;8.606;2024-01-10T02:52:29;30.40;;;12.57;;
21955;SDS011;11142;49.930;8.606;2024-01-10T02:54:58;28.73;;;11.13;;
21955;SDS011;11142;49.930;8.606;2024-01-10T02:57:26;32.00;;;13.05;;
21955;SDS011;11142;49.930;8.606;2024-01-10T02:59:56;29.25;;;13.77;;
21955;SDS011;11142;49.930;8.606;2024-01-10T03:02:25;39.70;;;13.18;;
21955;SDS011;11142;49.930;8.606;2024-01-10T03:04:53;31.92;;;12.05;;
21955;SDS011;11142;49.930;8.606;2024-01-10T03:07:22;28.63;;;12.07;;
21955;SDS011;11142;49.930;8.606;2024-01-10T03:09:51;37.95;;;13.90;;
21955;SDS011;11142;49.930;8.606;2024-01-10T03:12:19;31.52;;;11.50;;
21955;SDS011;11142;49.930;8.606;2024-01-10T03:14:47;28.55;;;10.90;;
21955;SDS011;11142;49.930;8.606;2024-01-10T03:17:17;35.08;;;13.70;;
21955;SDS011;11142;49.930;8.606;2024-01-10T03:19:45;27.38;;;12.38;;
21955;SDS011;11142;49.930;8.606;2024-01-10T03:22:13;30.85;;;11.55;;
21955;SDS011;11142;49.930;8.606;2024-01-10T03:24:41;28.48;;;12.02;;
21955;SDS011;11142;49.930;8.606;2024-01-10T03:27:10;26.27;;;11.10;;
21955;SDS011;11142;49.930;8.606;2024-01-10T03:29:38;39.03;;;13.23;;
21955;SDS011;11142;49.930;8.606;2024-01-10T03:32:06;27.20;;;12.90;;
21955;SDS011;11142;49.930;8.606;2024-01-10T03:34:35;33.38;;;13.88;;
21955;SDS011;11142;49.930;8.606;2024-01-10T03:37:04;26.38;;;11.98;;
21955;SDS011;11142;49.930;8.606;2024-01-10T03:39:32;37.38;;;13.02;;
21955;SDS011;11142;49.930;8.606;2024-01-10T03:42:00;38.97;;;14.18;;
21955;SDS011;11142;49.930;8.606;2024-01-10T03:44:29;36.17;;;13.30;;
21955;SDS011;11142;49.930;8.606;2024-01-10T03:46:57;30.23;;;13.25;;
21955;SDS011;11142;49.930;8.606;2024-01-10T03:49:25;36.65;;;13.95;;
21955;SDS011;11142;49.930;8.606;2024-01-10T03:51:55;32.47;;;13.27;;
21955;SDS011;11142;49.930;8.606;2024-01-10T03:54:24;37.10;;;13.13;;
21955;SDS011;11142;49.930;8.606;2024-01-10T03:56:53;35.10;;;14.80;;
21955;SDS011;11142;49.930;8.606;2024-01-10T03:59:21;28.40;;;12.82;;
21955;SDS011;11142;49.930;8.606;2024-01-10T04:01:50;35.20;;;13.05;;
21955;SDS011;11142;49.930;8.606;2024-01-10T04:04:19;32.10;;;12.35;;
21955;SDS011;11142;49.930;8.606;2024-01-10T04:06:49;36.40;;;13.35;;
21955;SDS011;11142;49.930;8.606;2024-01-10T04:09:18;31.50;;;13.63;;
21955;SDS011;11142;49.930;8.606;2024-01-10T04:11:47;33.55;;;14.32;;
21955;SDS011;11142;49.930;8.606;2024-01-10T04:14:15;35.85;;;12.70;;
21955;SDS011;11142;49.930;8.606;2024-01-10T04:16:43;31.52;;;13.13;;
21955;SDS011;11142;49.930;8.606;2024-01-10T04:19:11;36.22;;;13.02;;
21955;SDS011;11142;49.930;8.606;2024-01-10T04:21:41;30.75;;;11.60;;
21955;SDS011;11142;49.930;8.606;2024-01-10T04:24:10;31.27;;;11.48;;
21955;SDS011;11142;49.930;8.606;2024-01-10T04:26:43;32.58;;;12.90;;
21955;SDS011;11142;49.930;8.606;2024-01-10T04:29:13;28.52;;;12.27;;
21955;SDS011;11142;49.930;8.606;2024-01-10T04:31:41;29.80;;;12.88;;
21955;SDS011;11142;49.930;8.606;2024-01-10T04:34:10;39.13;;;13.77;;
21955;SDS011;11142;49.930;8.606;2024-01-10T04:36:39;34.47;;;12.80;;
21955;SDS011;11142;49.930;8.606;2024-01-10T04:39:07;33.60;;;13.38;;
21955;SDS011;11142;49.930;8.606;2024-01-10T04:41:36;30.48;;;12.63;;
21955;SDS011;11142;49.930;8.606;2024-01-10T04:44:05;29.50;;;13.65;;
21955;SDS011;11142;49.930;8.606;2024-01-10T04:46:34;33.42;;;12.00;;
21955;SDS011;11142;49.930;8.606;2024-01-10T04:49:02;38.75;;;13.90;;
21955;SDS011;11142;49.930;8.606;2024-01-10T04:51:31;29.70;;;12.85;;
21955;SDS011;11142;49.930;8.606;2024-01-10T04:53:59;32.80;;;13.48;;
21955;SDS011;11142;49.930;8.606;2024-01-10T04:56:28;32.05;;;14.32;;
21955;SDS011;11142;49.930;8.606;2024-01-10T04:58:56;31.95;;;12.70;;
21955;SDS011;11142;49.930;8.606;2024-01-10T05:01:25;34.65;;;14.20;;
21955;SDS011;11142;49.930;8.606;2024-01-10T05:03:54;34.78;;;13.65;;
21955;SDS011;11142;49.930;8.606;2024-01-10T05:06:22;36.30;;;14.75;;
21955;SDS011;11142;49.930;8.606;2024-01-10T05:08:52;32.42;;;14.48;;
21955;SDS011;11142;49.930;8.606;2024-01-10T05:11:24;37.20;;;14.80;;
21955;SDS011;11142;49.930;8.606;2024-01-10T05:13:53;38.05;;;13.27;;
21955;SDS011;11142;49.930;8.606;2024-01-10T05:16:21;36.00;;;13.75;;
21955;SDS011;11142;49.930;8.606;2024-01-10T05:18:51;36.70;;;13.48;;
21955;SDS011;11142;49.930;8.606;2024-01-10T05:21:19;34.05;;;15.00;;
21955;SDS011;11142;49.930;8.606;2024-01-10T05:23:48;35.92;;;17.08;;
21955;SDS011;11142;49.930;8.606;2024-01-10T05:26:16;35.67;;;15.77;;
21955;SDS011;11142;49.930;8.606;2024-01-10T05:28:45;39.58;;;15.98;;
21955;SDS011;11142;49.930;8.606;2024-01-10T05:31:13;31.65;;;15.07;;
21955;SDS011;11142;49.930;8.606;2024-01-10T05:33:41;36.53;;;15.50;;
21955;SDS011;11142;49.930;8.606;2024-01-10T05:36:11;45.72;;;16.25;;
21955;SDS011;11142;49.930;8.606;2024-01-10T05:38:39;37.85;;;16.30;;
21955;SDS011;11142;49.930;8.606;2024-01-10T05:41:08;34.00;;;12.98;;
21955;SDS011;11142;49.930;8.606;2024-01-10T05:43:36;38.47;;;14.25;;
21955;SDS011;11142;49.930;8.606;2024-01-10T05:46:04;36.83;;;17.63;;
21955;SDS011;11142;49.930;8.606;2024-01-10T05:48:32;44.00;;;22.17;;
21955;SDS011;11142;49.930;8.606;2024-01-10T05:51:00;44.80;;;16.65;;
21955;SDS011;11142;49.930;8.606;2024-01-10T05:53:31;32.97;;;12.82;;
21955;SDS011;11142;49.930;8.606;2024-01-10T05:55:59;31.77;;;12.65;;
21955;SDS011;11142;49.930;8.606;2024-01-10T05:58:27;27.40;;;13.15;;
21955;SDS011;11142;49.930;8.606;2024-01-10T06:00:55;31.55;;;13.30;;
21955;SDS011;11142;49.930;8.606;2024-01-10T06:03:23;34.83;;;13.93;;
21955;SDS011;11142;49.930;8.606;2024-01-10T06:05:52;24.58;;;11.75;;
21955;SDS011;11142;49.930;8.606;2024-01-10T06:08:20;42.17;;;15.80;;
21955;SDS011;11142;49.930;8.606;2024-01-10T06:10:58;33.22;;;13.50;;
21955;SDS011;11142;49.930;8.606;2024-01-10T06:13:26;28.33;;;13.50;;
21955;SDS011;11142;49.930;8.606;2024-01-10T06:16:08;30.38;;;13.05;;
21955;SDS011;11142;49.930;8.606;2024-01-10T06:18:38;28.05;;;12.77;;
21955;SDS011;11142;49.930;8.606;2024-01-10T06:21:07;38.95;;;13.95;;
21955;SDS011;11142;49.930;8.606;2024-01-10T06:23:37;40.33;;;14.98;;
21955;SDS011;11142;49.930;8.606;2024-01-10T06:26:07;26.80;;;13.30;;
21955;SDS011;11142;49.930;8.606;2024-01-10T06:28:38;37.47;;;13.90;;
21955;SDS011;11142;49.930;8.606;2024-01-10T06:31:08;37.10;;;14.38;;
21955;SDS011;11142;49.930;8.606;2024-01-10T06:33:41;37.08;;;14.52;;
21955;SDS011;11142;49.930;8.606;2024-01-10T06:36:13;37.85;;;13.63;;
21955;SDS011;11142;49.930;8.606;2024-01-10T06:38:41;31.10;;;13.38;;
21955;SDS011;11142;49.930;8.606;2024-01-10T06:41:13;40.72;;;13.95;;
21955;SDS011;11142;49.930;8.606;2024-01-10T06:43:41;40.08;;;15.48;;
21955;SDS011;11142;49.930;8.606;2024-01-10T06:46:09;34.13;;;14.43;;
21955;SDS011;11142;49.930;8.606;2024-01-10T06:48:38;36.17;;;12.75;;
21955;SDS011;11142;49.930;8.606;2024-01-10T06:51:12;32.85;;;15.13;;
21955;SDS011;11142;49.930;8.606;2024-01-10T06:53:43;34.70;;;12.80;;
21955;SDS011;11142;49.930;8.606;2024-01-10T06:56:17;20.33;;;10.65;;
21955;SDS011;11142;49.930;8.606;2024-01-10T06:58:46;30.25;;;13.57;;
21955;SDS011;11142;49.930;8.606;2024-01-10T07:01:18;33.33;;;13.85;;
21955;SDS011;11142;49.930;8.606;2024-01-10T07:03:51;26.75;;;12.77;;
21955;SDS011;11142;49.930;8.606;2024-01-10T07:06:21;32.58;;;12.30;;
21955;SDS011;11142;49.930;8.606;2024-01-10T07:08:49;36.88;;;14.15;;
21955;SDS011;11142;49.930;8.606;2024-01-10T07:11:20;32.25;;;14.18;;
21955;SDS011;11142;49.930;8.606;2024-01-10T07:13:48;32.63;;;12.98;;
21955;SDS011;11142;49.930;8.606;2024-01-10T07:16:17;41.75;;;15.43;;
21955;SDS011;11142;49.930;8.606;2024-01-10T07:18:46;28.27;;;12.50;;
21955;SDS011;11142;49.930;8.606;2024-01-10T07:21:18;21.67;;;10.10;;
21955;SDS011;11142;49.930;8.606;2024-01-10T07:23:47;37.05;;;13.93;;
21955;SDS011;11142;49.930;8.606;2024-01-10T07:26:16;32.92;;;13.80;;
21955;SDS011;11142;49.930;8.606;2024-01-10T07:28:46;29.83;;;13.60;;
21955;SDS011;11142;49.930;8.606;2024-01-10T07:31:14;26.88;;;12.70;;
21955;SDS011;11142;49.930;8.606;2024-01-10T07:33:43;34.90;;;14.73;;
21955;SDS011;11142;49.930;8.606;2024-01-10T07:36:11;32.53;;;13.00;;
21955;SDS011;11142;49.930;8.606;2024-01-10T07:38:40;31.55;;;12.15;;
21955;SDS011;11142;49.930;8.606;2024-01-10T07:41:07;32.03;;;13.68;;
21955;SDS011;11142;49.930;8.606;2024-01-10T07:43:39;41.50;;;14.13;;
21955;SDS011;11142;49.930;8.606;2024-01-10T07:46:09;35.97;;;14.88;;
21955;SDS011;11142;49.930;8.606;2024-01-10T07:48:38;37.60;;;15.13;;
21955;SDS011;11142;49.930;8.606;2024-01-10T07:51:07;30.27;;;12.20;;
21955;SDS011;11142;49.930;8.606;2024-01-10T07:53:37;35.72;;;13.68;;
21955;SDS011;11142;49.930;8.606;2024-01-10T07:56:06;39.33;;;15.68;;
21955;SDS011;11142;49.930;8.606;2024-01-10T07:58:34;37.85;;;13.45;;
21955;SDS011;11142;49.930;8.606;2024-01-10T08:01:02;31.45;;;14.00;;
21955;SDS011;11142;49.930;8.606;2024-01-10T08:03:33;33.55;;;14.20;;
21955;SDS011;11142;49.930;8.606;2024-01-10T08:06:01;35.78;;;14.73;;
21955;SDS011;11142;49.930;8.606;2024-01-10T08:08:37;34.95;;;13.98;;
21955;SDS011;11142;49.930;8.606;2024-01-10T08:11:06;30.13;;;12.52;;
21955;SDS011;11142;49.930;8.606;2024-01-10T08:13:36;31.75;;;13.88;;
21955;SDS011;11142;49.930;8.606;2024-01-10T08:16:06;33.15;;;14.95;;
21955;SDS011;11142;49.930;8.606;2024-01-10T08:18:38;34.90;;;15.07;;
21955;SDS011;11142;49.930;8.606;2024-01-10T08:21:06;31.00;;;13.77;;
21955;SDS011;11142;49.930;8.606;2024-01-10T08:23:35;31.60;;;13.88;;
21955;SDS011;11142;49.930;8.606;2024-01-10T08:26:06;31.23;;;14.57;;
21955;SDS011;11142;49.930;8.606;2024-01-10T08:28:35;38.67;;;15.82;;
21955;SDS011;11142;49.930;8.606;2024-01-10T08:31:03;34.85;;;16.50;;
21955;SDS011;11142;49.930;8.606;2024-01-10T08:33:32;36.05;;;15.35;;
21955;SDS011;11142;49.930;8.606;2024-01-10T08:36:08;36.85;;;14.40;;
21955;SDS011;11142;49.930;8.606;2024-01-10T08:38:37;38.17;;;15.90;;
21955;SDS011;11142;49.930;8.606;2024-01-10T08:41:06;31.88;;;14.90;;
21955;SDS011;11142;49.930;8.606;2024-01-10T08:43:35;41.15;;;15.27;;
21955;SDS011;11142;49.930;8.606;2024-01-10T08:46:03;37.42;;;15.25;;
21955;SDS011;11142;49.930;8.606;2024-01-10T08:48:32;36.80;;;14.68;;
21955;SDS011;11142;49.930;8.606;2024-01-10T08:51:01;30.05;;;12.95;;
21955;SDS011;11142;49.930;8.606;2024-01-10T08:53:30;38.67;;;14.60;;
21955;SDS011;11142;49.930;8.606;2024-01-10T08:55:59;33.92;;;12.65;;
21955;SDS011;11142;49.930;8.606;2024-01-10T08:58:27;32.88;;;14.00;;
21955;SDS011;11142;49.930;8.606;2024-01-10T09:00:55;38.00;;;15.68;;
21955;SDS011;11142;49.930;8.606;2024-01-10T09:03:23;32.58;;;13.63;;
21955;SDS011;11142;49.930;8.606;2024-01-10T09:05:51;32.28;;;13.43;;
21955;SDS011;11142;49.930;8.606;2024-01-10T09:08:35;39.03;;;15.90;;
21955;SDS011;11142;49.930;8.606;2024-01-10T09:11:03;37.85;;;14.45;;
21955;SDS011;11142;49.930;8.606;2024-01-10T09:13:31;42.20;;;16.92;;
21955;SDS011;11142;49.930;8.606;2024-01-10T09:16:00;35.97;;;15.00;;
21955;SDS011;11142;49.930;8.606;2024-01-10T09:18:28;34.10;;;14.95;;
21955;SDS011;11142;49.930;8.606;2024-01-10T09:20:56;41.10;;;14.02;;
21955;SDS011;11142;49.930;8.606;2024-01-10T09:23:25;37.40;;;14.23;;
21955;SDS011;11142;49.930;8.606;2024-01-10T09:25:56;36.88;;;15.63;;
21955;SDS011;11142;49.930;8.606;2024-01-10T09:28:24;38.35;;;13.60;;
21955;SDS011;11142;49.930;8.606;2024-01-10T09:30:52;31.20;;;13.15;;
21955;SDS011;11142;49.930;8.606;2024-01-10T09:33:22;31.00;;;14.02;;
21955;SDS011;11142;49.930;8.606;2024-01-10T09:35:50;35.15;;;14.25;;
21955;SDS011;11142;49.930;8.606;2024-01-10T09:38:19;31.25;;;13.52;;
21955;SDS011;11142;49.930;8.606;2024-01-10T09:40:46;38.65;;;14.50;;
21955;SDS011;11142;49.930;8.606;2024-01-10T09:43:16;29.27;;;13.25;;
21955;SDS011;11142;49.930;8.606;2024-01-10T09:45:46;32.40;;;12.95;;
21955;SDS011;11142;49.930;8.606;2024-01-10T09:48:16;30.42;;;11.93;;
21955;SDS011;11142;49.930;8.606;2024-01-10T09:50:45;31.00;;;13.35;;
21955;SDS011;11142;49.930;8.606;2024-01-10T09:53:19;26.80;;;10.40;;
21955;SDS011;11142;49.930;8.606;2024-01-10T09:55:53;36.85;;;13.00;;
21955;SDS011;11142;49.930;8.606;2024-01-10T09:58:25;36.90;;;13.50;;
21955;SDS011;11142;49.930;8.606;2024-01-10T10:00:53;32.60;;;13.45;;
21955;SDS011;11142;49.930;8.606;2024-01-10T10:03:24;36.10;;;15.68;;
21955;SDS011;11142;49.930;8.606;2024-01-10T10:05:53;34.28;;;14.57;;
21955;SDS011;11142;49.930;8.606;2024-01-10T10:08:21;34.55;;;14.15;;
21955;SDS011;11142;49.930;8.606;2024-01-10T10:10:52;39.30;;;15.40;;
21955;SDS011;11142;49.930;8.606;2024-01-10T10:13:28;33.28;;;14.05;;
21955;SDS011;11142;49.930;8.606;2024-01-10T10:16:04;33.25;;;13.45;;
21955;SDS011;11142;49.930;8.606;2024-01-10T10:18:32;32.90;;;13.00;;
21955;SDS011;11142;49.930;8.606;2024-01-10T10:21:08;36.83;;;15.00;;
21955;SDS011;11142;49.930;8.606;2024-01-10T10:23:39;29.80;;;13.63;;
21955;SDS011;11142;49.930;8.606;2024-01-10T10:26:11;33.17;;;12.95;;
21955;SDS011;11142;49.930;8.606;2024-01-10T10:28:50;39.67;;;15.80;;
21955;SDS011;11142;49.930;8.606;2024-01-10T10:31:19;50.85;;;16.20;;
21955;SDS011;11142;49.930;8.606;2024-01-10T10:33:48;45.53;;;16.02;;
21955;SDS011;11142;49.930;8.606;2024-01-10T10:36:17;63.70;;;15.88;;
21955;SDS011;11142;49.930;8.606;2024-01-10T10:38:48;38.33;;;14.23;;
21955;SDS011;11142;49.930;8.606;2024-01-10T10:41:18;37.10;;;15.50;;
21955;SDS011;11142;49.930;8.606;2024-01-10T10:43:47;72.40;;;27.23;;
21955;SDS011;11142;49.930;8.606;2024-01-10T10:46:20;26.83;;;10.50;;
21955;SDS011;11142;49.930;8.606;2024-01-10T10:48:56;29.05;;;12.30;;
21955;SDS011;11142;49.930;8.606;2024-01-10T10:51:32;35.17;;;14.00;;
21955;SDS011;11142;49.930;8.606;2024-01-10T10:54:01;34.30;;;14.35;;
21955;SDS011;11142;49.930;8.606;2024-01-10T10:56:32;37.42;;;13.88;;
21955;SDS011;11142;49.930;8.606;2024-01-10T10:59:03;42.58;;;13.98;;
21955;SDS011;11142;49.930;8.606;2024-01-10T11:01:32;38.55;;;13.48;;
21955;SDS011;11142;49.930;8.606;2024-01-10T11:04:02;30.27;;;12.75;;
21955;SDS011;11142;49.930;8.606;2024-01-10T11:06:30;35.35;;;13.48;;
21955;SDS011;11142;49.930;8.606;2024-01-10T11:09:01;41.80;;;14.23;;
21955;SDS011;11142;49.930;8.606;2024-01-10T11:11:36;30.92;;;12.75;;
21955;SDS011;11142;49.930;8.606;2024-01-10T11:14:18;26.88;;;12.55;;
21955;SDS011;11142;49.930;8.606;2024-01-10T11:17:01;28.45;;;12.45;;
21955;SDS011;11142;49.930;8.606;2024-01-10T11:23:04;31.60;;;12.63;;
21955;SDS011;11142;49.930;8.606;2024-01-10T11:25:45;26.65;;;12.02;;
21955;SDS011;11142;49.930;8.606;2024-01-10T11:28:15;35.25;;;14.05;;
21955;SDS011;11142;49.930;8.606;2024-01-10T11:30:50;26.40;;;10.95;;
21955;SDS011;11142;49.930;8.606;2024-01-10T11:33:20;32.45;;;12.95;;
21955;SDS011;11142;49.930;8.606;2024-01-10T11:36:06;24.27;;;9.82;;
21955;SDS011;11142;49.930;8.606;2024-01-10T11:38:53;28.25;;;12.55;;
21955;SDS011;11142;49.930;8.606;2024-01-10T11:41:29;27.70;;;11.73;;
21955;SDS011;11142;49.930;8.606;2024-01-10T11:47:08;28.05;;;11.52;;
21955;SDS011;11142;49.930;8.606;2024-01-10T11:49:36;26.40;;;11.20;;
21955;SDS011;11142;49.930;8.606;2024-01-10T11:52:04;33.25;;;12.80;;
21955;SDS011;11142;49.930;8.606;2024-01-10T11:54:37;36.13;;;11.60;;
21955;SDS011;11142;49.930;8.606;2024-01-10T11:57:13;32.17;;;13.20;;
21955;SDS011;11142;49.930;8.606;2024-01-10T11:59:43;27.17;;;12.15;;
21955;SDS011;11142;49.930;8.606;2024-01-10T12:02:14;25.67;;;11.98;;
21955;SDS011;11142;49.930;8.606;2024-01-10T12:04:43;23.33;;;10.82;;
21955;SDS011;11142;49.930;8.606;2024-01-10T12:07:15;32.67;;;12.73;;
21955;SDS011;11142;49.930;8.606;2024-01-10T12:09:46;28.27;;;11.07;;
21955;SDS011;11142;49.930;8.606;2024-01-10T12:12:17;26.38;;;11.75;;
21955;SDS011;11142;49.930;8.606;2024-01-10T12:14:46;26.85;;;11.25;;
21955;SDS011;11142;49.930;8.606;2024-01-10T12:17:15;25.75;;;10.73;;
21955;SDS011;11142;49.930;8.606;2024-01-10T12:19:45;28.45;;;11.77;;
21955;SDS011;11142;49.930;8.606;2024-01-10T12:22:21;25.20;;;10.30;;
21955;SDS011;11142;49.930;8.606;2024-01-10T12:24:49;24.27;;;8.63;;
21955;SDS011;11142;49.930;8.606;2024-01-10T12:27:19;31.90;;;12.93;;
21955;SDS011;11142;49.930;8.606;2024-01-10T12:29:50;27.30;;;11.80;;
21955;SDS011;11142;49.930;8.606;2024-01-10T12:32:22;28.52;;;11.68;;
21955;SDS011;11142;49.930;8.606;2024-01-10T12:34:59;15.90;;;7.47;;
21955;SDS011;11142;49.930;8.606;2024-01-10T12:37:29;23.20;;;10.52;;
21955;SDS011;11142;49.930;8.606;2024-01-10T12:39:58;23.55;;;9.70;;
21955;SDS011;11142;49.930;8.606;2024-01-10T12:42:26;28.42;;;11.63;;
21955;SDS011;11142;49.930;8.606;2024-01-10T12:44:54;33.20;;;12.02;;
21955;SDS011;11142;49.930;8.606;2024-01-10T12:47:24;29.42;;;12.15;;
21955;SDS011;11142;49.930;8.606;2024-01-10T12:49:53;31.05;;;12.02;;
21955;SDS011;11142;49.930;8.606;2024-01-10T12:52:21;32.08;;;10.00;;
21955;SDS011;11142;49.930;8.606;2024-01-10T12:54:51;30.40;;;11.48;;
21955;SDS011;11142;49.930;8.606;2024-01-10T12:57:20;24.95;;;10.82;;
21955;SDS011;11142;49.930;8.606;2024-01-10T12:59:50;24.73;;;10.98;;
21955;SDS011;11142;49.930;8.606;2024-01-10T13:02:19;27.85;;;11.68;;
21955;SDS011;11142;49.930;8.606;2024-01-10T13:04:49;29.42;;;12.27;;
21955;SDS011;11142;49.930;8.606;2024-01-10T13:07:18;27.02;;;11.88;;
21955;SDS011;11142;49.930;8.606;2024-01-10T13:09:46;28.25;;;11.95;;
21955;SDS011;11142;49.930;8.606;2024-01-10T13:12:14;27.30;;;11.00;;
21955;SDS011;11142;49.930;8.606;2024-01-10T13:14:43;27.48;;;12.07;;
21955;SDS011;11142;49.930;8.606;2024-01-10T13:17:11;29.25;;;10.90;;
21955;SDS011;11142;49.930;8.606;2024-01-10T13:19:39;29.15;;;12.45;;
21955;SDS011;11142;49.930;8.606;2024-01-10T13:22:09;27.15;;;10.90;;
21955;SDS011;11142;49.930;8.606;2024-01-10T13:24:38;26.80;;;11.02;;
21955;SDS011;11142;49.930;8.606;2024-01-10T13:27:06;26.80;;;10.30;;
21955;SDS011;11142;49.930;8.606;2024-01-10T13:29:36;28.08;;;11.60;;
21955;SDS011;11142;49.930;8.606;2024-01-10T13:32:06;25.63;;;10.60;;
21955;SDS011;11142;49.930;8.606;2024-01-10T13:34:34;28.63;;;11.60;;
21955;SDS011;11142;49.930;8.606;2024-01-10T13:37:05;28.50;;;12.50;;
21955;SDS011;11142;49.930;8.606;2024-01-10T13:39:35;30.13;;;11.68;;
21955;SDS011;11142;49.930;8.606;2024-01-10T13:42:04;26.17;;;11.25;;
21955;SDS011;11142;49.930;8.606;2024-01-10T13:44:32;24.70;;;11.00;;
21955;SDS011;11142;49.930;8.606;2024-01-10T13:47:00;27.80;;;10.55;;
21955;SDS011;11142;49.930;8.606;2024-01-10T13:49:30;25.10;;;10.85;;
21955;SDS011;11142;49.930;8.606;2024-01-10T13:51:59;31.10;;;11.98;;
21955;SDS011;11142;49.930;8.606;2024-01-10T13:54:27;24.25;;;10.27;;
21955;SDS011;11142;49.930;8.606;2024-01-10T13:56:56;25.55;;;11.18;;
21955;SDS011;11142;49.930;8.606;2024-01-10T13:59:26;29.25;;;11.80;;
21955;SDS011;11142;49.930;8.606;2024-01-10T14:01:54;25.13;;;10.50;;
21955;SDS011;11142;49.930;8.606;2024-01-10T14:04:24;29.65;;;11.85;;
21955;SDS011;11142;49.930;8.606;2024-01-10T14:06:52;26.98;;;11.55;;
21955;SDS011;11142;49.930;8.606;2024-01-10T14:09:22;26.08;;;10.48;;
21955;SDS011;11142;49.930;8.606;2024-01-10T14:11:51;23.67;;;10.80;;
21955;SDS011;11142;49.930;8.606;2024-01-10T14:14:21;24.05;;;10.95;;
21955;SDS011;11142;49.930;8.606;2024-01-10T14:16:52;30.95;;;11.10;;
21955;SDS011;11142;49.930;8.606;2024-01-10T14:19:20;31.15;;;11.60;;
21955;SDS011;11142;49.930;8.606;2024-01-10T14:21:49;26.58;;;10.85;;
21955;SDS011;11142;49.930;8.606;2024-01-10T14:24:17;25.67;;;12.40;;
21955;SDS011;11142;49.930;8.606;2024-01-10T14:26:46;28.45;;;10.80;;
21955;SDS011;11142;49.930;8.606;2024-01-10T14:29:17;28.38;;;11.90;;
21955;SDS011;11142;49.930;8.606;2024-01-10T14:31:47;29.98;;;11.80;;
21955;SDS011;11142;49.930;8.606;2024-01-10T14:34:38;26.52;;;11.48;;
21955;SDS011;11142;49.930;8.606;2024-01-10T14:37:08;31.27;;;11.68;;
21955;SDS011;11142;49.930;8.606;2024-01-10T14:39:36;26.55;;;11.23;;
21955;SDS011;11142;49.930;8.606;2024-01-10T14:42:07;27.55;;;11.18;;
21955;SDS011;11142;49.930;8.606;2024-01-10T14:44:36;24.23;;;10.57;;